createdAt,value
2019-02-25T00:02:39.222Z,7.30
2019-02-25T00:05:27.263Z,7.20
2019-02-25T00:10:49.921Z,7.10
2019-02-25T00:13:30.734Z,7.10
2019-02-25T00:16:11.518Z,7.10
2019-02-25T00:18:50.638Z,7.00
2019-02-25T00:21:38.682Z,7.00
2019-02-25T00:24:26.806Z,7.00
2019-02-25T00:27:14.834Z,6.90
2019-02-25T00:30:03.105Z,6.90
2019-02-25T00:32:51.176Z,6.90
2019-02-25T00:35:19.926Z,6.80
2019-02-25T00:38:08.001Z,6.70
2019-02-25T00:40:36.752Z,6.70
2019-02-25T00:46:31.879Z,6.50
2019-02-25T00:49:19.881Z,6.50
2019-02-25T00:51:48.598Z,6.40
2019-02-25T00:54:36.563Z,6.40
2019-02-25T00:57:24.577Z,6.40
2019-02-25T01:03:20.265Z,6.50
2019-02-25T01:06:08.267Z,6.40
2019-02-25T01:08:49.077Z,6.30
2019-02-25T01:11:29.761Z,6.30
2019-02-25T01:14:10.820Z,6.30
2019-02-25T01:16:51.614Z,6.30
2019-02-25T01:19:32.871Z,6.20
2019-02-25T01:24:55.162Z,6.20
2019-02-25T01:27:43.213Z,6.20
2019-02-25T01:30:31.241Z,6.10
2019-02-25T01:33:19.291Z,6.10
2019-02-25T01:36:07.391Z,6.20
2019-02-25T01:38:55.405Z,6.20
2019-02-25T01:41:43.514Z,6.10
2019-02-25T01:44:12.289Z,6.10
2019-02-25T01:47:00.271Z,6.10
2019-02-25T01:49:48.243Z,6.10
2019-02-25T01:52:36.289Z,6.10
2019-02-25T01:55:24.270Z,6.10
2019-02-25T01:58:12.257Z,6.10
2019-02-25T02:01:00.257Z,6.00
2019-02-25T02:03:48.286Z,6.00
2019-02-25T02:06:36.349Z,5.90
2019-02-25T02:09:16.808Z,5.80
2019-02-25T02:11:57.753Z,5.80
2019-02-25T02:14:38.648Z,5.80
2019-02-25T02:17:19.493Z,5.80
2019-02-25T02:20:00.303Z,5.90
2019-02-25T02:22:41.132Z,5.90
2019-02-25T02:25:21.596Z,5.90
2019-02-25T02:28:02.507Z,6.00
2019-02-25T02:30:42.949Z,6.00
2019-02-25T02:33:23.576Z,6.10
2019-02-25T02:36:04.369Z,6.10
2019-02-25T02:38:45.065Z,6.10
2019-02-25T02:43:56.790Z,6.00
2019-02-25T02:47:04.033Z,5.90
2019-02-25T02:49:52.046Z,5.90
2019-02-25T02:52:40.073Z,5.80
2019-02-25T02:55:28.066Z,5.70
2019-02-25T02:57:56.763Z,5.70
2019-02-25T03:00:44.796Z,5.70
2019-02-25T03:03:32.848Z,5.70
2019-02-25T03:06:20.840Z,5.60
2019-02-25T03:09:01.733Z,5.60
2019-02-25T03:11:42.921Z,5.50
2019-02-25T03:14:23.808Z,5.50
2019-02-25T03:16:52.568Z,5.50
2019-02-25T03:19:40.575Z,5.40
2019-02-25T03:22:28.551Z,5.40
2019-02-25T03:25:16.626Z,5.40
2019-02-25T03:28:04.623Z,5.30
2019-02-25T03:30:52.611Z,5.20
2019-02-25T03:33:40.606Z,5.20
2019-02-25T03:36:28.606Z,5.10
2019-02-25T03:39:16.580Z,5.20
2019-02-25T03:42:04.578Z,5.10
2019-02-25T03:47:59.663Z,5.00
2019-02-25T03:50:47.732Z,5.00
2019-02-25T03:53:35.777Z,5.00
2019-02-25T03:58:58.363Z,5.00
2019-02-25T04:01:46.387Z,5.00
2019-02-25T04:04:34.378Z,5.00
2019-02-25T04:07:22.399Z,4.90
2019-02-25T04:10:03.565Z,4.90
2019-02-25T04:12:44.485Z,4.80
2019-02-25T04:15:30.198Z,4.90
2019-02-25T04:18:11.005Z,4.80
2019-02-25T04:20:51.464Z,4.70
2019-02-25T04:23:32.399Z,4.70
2019-02-25T04:26:13.254Z,4.70
2019-02-25T04:28:54.074Z,4.60
2019-02-25T04:31:34.928Z,4.70
2019-02-25T04:34:15.380Z,4.70
2019-02-25T04:36:56.013Z,4.60
2019-02-25T04:39:36.910Z,4.50
2019-02-25T04:42:17.678Z,4.50
2019-02-25T04:44:46.556Z,4.40
2019-02-25T04:47:15.620Z,4.40
2019-02-25T04:49:44.480Z,4.30
2019-02-25T04:52:13.232Z,4.30
2019-02-25T04:54:42.206Z,4.20
2019-02-25T04:57:11.121Z,4.10
2019-02-25T04:59:40.088Z,4.10
2019-02-25T05:02:08.902Z,4.00
2019-02-25T05:04:37.834Z,3.90
2019-02-25T05:07:06.721Z,3.80
2019-02-25T05:09:35.770Z,3.80
2019-02-25T05:12:04.670Z,3.70
2019-02-25T05:14:33.398Z,3.70
2019-02-25T05:17:02.241Z,3.70
2019-02-25T05:19:31.100Z,3.70
2019-02-25T05:22:00.116Z,3.70
2019-02-25T05:24:29.159Z,3.70
2019-02-25T05:26:57.874Z,3.60
2019-02-25T05:29:26.654Z,3.60
2019-02-25T05:31:55.588Z,3.70
2019-02-25T05:34:24.670Z,3.60
2019-02-25T05:36:53.595Z,3.60
2019-02-25T05:39:41.613Z,3.70
2019-02-25T05:42:10.525Z,3.70
2019-02-25T05:44:39.287Z,3.70
2019-02-25T05:47:08.092Z,3.90
2019-02-25T05:49:56.156Z,3.80
2019-02-25T05:52:44.315Z,3.80
2019-02-25T05:55:32.276Z,3.80
2019-02-25T06:01:14.068Z,3.90
2019-02-25T06:03:42.783Z,3.80
2019-02-25T06:06:30.851Z,3.80
2019-02-25T06:09:18.979Z,3.80
2019-02-25T06:11:58.067Z,3.80
2019-02-25T06:14:46.131Z,3.90
2019-02-25T06:17:34.287Z,3.80
2019-02-25T06:20:03.036Z,3.90
2019-02-25T06:22:31.786Z,3.90
2019-02-25T06:27:54.316Z,3.80
2019-02-25T06:30:42.384Z,3.90
2019-02-25T06:33:30.627Z,3.90
2019-02-25T06:35:59.439Z,3.90
2019-02-25T06:38:47.560Z,3.90
2019-02-25T06:41:35.554Z,4.00
2019-02-25T06:44:23.641Z,4.10
2019-02-25T06:47:11.663Z,4.00
2019-02-25T06:49:59.718Z,4.10
2019-02-25T06:53:07.033Z,4.10
2019-02-25T06:55:55.022Z,4.20
2019-02-25T06:58:43.150Z,4.10
2019-02-25T07:01:31.429Z,4.20
2019-02-25T07:04:38.490Z,4.20
2019-02-25T07:07:45.573Z,4.30
2019-02-25T07:10:52.644Z,4.30
2019-02-25T07:13:52.214Z,4.30
2019-02-25T07:16:42.783Z,4.40
2019-02-25T07:19:37.170Z,4.50
2019-02-25T07:22:24.478Z,4.60
2019-02-25T07:25:24.065Z,4.60
2019-02-25T07:28:11.845Z,4.70
2019-02-25T07:31:18.999Z,4.60
2019-02-25T07:34:26.142Z,4.80
2019-02-25T07:37:33.164Z,4.90
2019-02-25T07:40:40.284Z,4.90
2019-02-25T07:43:47.394Z,5.00
2019-02-25T07:46:44.859Z,5.00
2019-02-25T07:49:52.122Z,5.00
2019-02-25T07:52:39.971Z,5.00
2019-02-25T07:55:47.099Z,5.00
2019-02-25T07:58:54.148Z,5.10
2019-02-25T08:02:01.183Z,5.20
2019-02-25T08:05:08.375Z,5.30
2019-02-25T08:08:15.499Z,5.30
2019-02-25T08:11:22.564Z,5.50
2019-02-25T08:14:22.367Z,5.70
2019-02-25T08:17:10.607Z,5.90
2019-02-25T08:20:16.602Z,6.00
2019-02-25T08:23:12.501Z,6.00
2019-02-25T08:26:18.820Z,6.20
2019-02-25T08:29:10.607Z,6.20
2019-02-25T08:32:16.906Z,6.40
2019-02-25T08:35:16.976Z,6.50
2019-02-25T08:38:24.100Z,6.60
2019-02-25T08:41:31.470Z,6.60
2019-02-25T08:44:38.626Z,6.70
2019-02-25T08:47:45.662Z,6.80
2019-02-25T08:50:33.669Z,6.90
2019-02-25T08:53:02.419Z,7.00
2019-02-25T08:55:50.434Z,7.10
2019-02-25T08:58:38.526Z,7.20
2019-02-25T09:01:27.067Z,7.30
2019-02-25T09:04:15.238Z,7.40
2019-02-25T09:07:03.253Z,7.60
2019-02-25T09:09:51.477Z,7.80
2019-02-25T09:12:31.885Z,8.00
2019-02-25T09:15:12.597Z,8.10
2019-02-25T09:17:53.826Z,8.30
2019-02-25T09:20:35.247Z,8.40
2019-02-25T09:23:16.691Z,8.50
2019-02-25T09:25:57.274Z,8.60
2019-02-25T09:28:38.235Z,8.80
2019-02-25T09:31:19.785Z,9.00
2019-02-25T09:33:48.683Z,9.10
2019-02-25T09:36:17.519Z,9.10
2019-02-25T09:38:46.565Z,9.20
2019-02-25T09:41:15.413Z,9.30
2019-02-25T09:43:44.128Z,9.50
2019-02-25T09:46:12.869Z,9.60
2019-02-25T09:48:41.583Z,9.70
2019-02-25T09:51:11.357Z,9.90
2019-02-25T09:53:40.367Z,9.90
2019-02-25T09:56:09.139Z,9.90
2019-02-25T09:58:37.860Z,10.00
2019-02-25T10:01:06.622Z,10.10
2019-02-25T10:03:35.553Z,10.30
2019-02-25T10:06:04.448Z,10.40
2019-02-25T10:08:33.252Z,10.50
2019-02-25T10:11:02.217Z,10.60
2019-02-25T10:13:31.054Z,10.80
2019-02-25T10:15:59.871Z,11.00
2019-02-25T10:18:28.771Z,11.00
2019-02-25T10:20:57.500Z,11.10
2019-02-25T10:23:26.367Z,11.20
2019-02-25T10:25:55.091Z,11.30
2019-02-25T10:28:23.968Z,11.50
2019-02-25T10:30:53.278Z,11.60
2019-02-25T10:33:22.177Z,11.70
2019-02-25T10:35:50.909Z,11.80
2019-02-25T10:38:21.521Z,11.90
2019-02-25T10:40:52.126Z,11.90
2019-02-25T10:43:20.974Z,12.00
2019-02-25T10:45:49.765Z,12.10
2019-02-25T10:48:19.846Z,12.20
2019-02-25T10:50:55.706Z,12.30
2019-02-25T10:53:21.987Z,12.50
2019-02-25T10:55:58.994Z,12.40
2019-02-25T10:58:29.434Z,12.50
2019-02-25T11:00:58.319Z,12.60
2019-02-25T11:03:27.188Z,12.70
2019-02-25T11:05:56.346Z,12.80
2019-02-25T11:08:26.597Z,12.90
2019-02-25T11:11:27.188Z,12.90
2019-02-25T11:13:56.049Z,13.00
2019-02-25T11:16:24.968Z,13.20
2019-02-25T11:18:55.048Z,13.30
2019-02-25T11:21:24.227Z,13.40
2019-02-25T11:23:53.367Z,13.40
2019-02-25T11:26:23.801Z,13.50
2019-02-25T11:28:52.895Z,13.60
2019-02-25T11:31:22.809Z,13.60
2019-02-25T11:33:52.215Z,13.70
2019-02-25T11:36:22.046Z,13.80
2019-02-25T11:38:51.051Z,13.90
2019-02-25T11:41:19.883Z,13.90
2019-02-25T11:43:50.478Z,13.90
2019-02-25T11:46:19.422Z,14.10
2019-02-25T11:48:48.238Z,14.20
2019-02-25T11:51:17.000Z,14.20
2019-02-25T11:53:45.883Z,14.20
2019-02-25T11:56:14.602Z,14.30
2019-02-25T11:58:43.354Z,14.40
2019-02-25T12:01:12.050Z,14.60
2019-02-25T12:03:59.429Z,14.70
2019-02-25T12:06:28.237Z,14.80
2019-02-25T12:08:56.976Z,14.90
2019-02-25T12:11:25.758Z,14.90
2019-02-25T12:13:54.592Z,14.90
2019-02-25T12:16:25.301Z,14.90
2019-02-25T12:18:54.214Z,15.00
2019-02-25T12:21:22.966Z,14.90
2019-02-25T12:23:51.693Z,14.90
2019-02-25T12:26:20.547Z,14.80
2019-02-25T12:28:49.313Z,15.00
2019-02-25T12:31:18.043Z,14.90
2019-02-25T12:33:47.036Z,14.90
2019-02-25T12:36:15.932Z,14.90
2019-02-25T12:38:44.717Z,15.10
2019-02-25T12:41:13.552Z,15.10
2019-02-25T12:43:42.506Z,15.10
2019-02-25T12:46:11.211Z,15.20
2019-02-25T12:48:39.957Z,15.20
2019-02-25T12:51:08.694Z,15.40
2019-02-25T12:53:37.910Z,15.50
2019-02-25T12:56:08.866Z,15.50
2019-02-25T12:58:37.716Z,15.60
2019-02-25T13:01:06.518Z,15.70
2019-02-25T13:03:35.553Z,15.90
2019-02-25T13:06:04.415Z,15.80
2019-02-25T13:08:33.233Z,15.90
2019-02-25T13:11:01.995Z,15.70
2019-02-25T13:13:30.793Z,15.80
2019-02-25T13:15:59.526Z,15.90
2019-02-25T13:18:28.699Z,16.00
2019-02-25T13:20:57.578Z,15.90
2019-02-25T13:23:26.378Z,15.90
2019-02-25T13:25:55.206Z,16.10
2019-02-25T13:28:26.000Z,16.10
2019-02-25T13:30:54.601Z,16.10
2019-02-25T13:33:23.542Z,15.90
2019-02-25T13:35:52.327Z,15.90
2019-02-25T13:38:21.194Z,16.00
2019-02-25T13:40:50.038Z,16.00
2019-02-25T13:43:18.888Z,15.90
2019-02-25T13:45:48.044Z,16.00
2019-02-25T13:48:16.783Z,16.20
2019-02-25T13:50:45.665Z,16.00
2019-02-25T13:53:15.020Z,16.00
2019-02-25T13:55:43.999Z,16.00
2019-02-25T13:58:12.885Z,15.90
2019-02-25T14:00:41.755Z,15.90
2019-02-25T14:03:10.734Z,15.90
2019-02-25T14:05:39.556Z,16.00
2019-02-25T14:08:08.487Z,16.00
2019-02-25T14:10:37.454Z,16.10
2019-02-25T14:13:06.544Z,16.00
2019-02-25T14:15:35.566Z,15.80
2019-02-25T14:18:04.352Z,16.00
2019-02-25T14:20:33.140Z,16.20
2019-02-25T14:23:02.060Z,16.10
2019-02-25T14:25:31.072Z,16.20
2019-02-25T14:27:59.974Z,16.40
2019-02-25T14:30:33.015Z,16.50
2019-02-25T14:32:59.294Z,16.40
2019-02-25T14:35:28.746Z,16.30
2019-02-25T14:38:04.147Z,16.30
2019-02-25T14:40:31.653Z,16.20
2019-02-25T14:42:59.823Z,16.20
2019-02-25T14:45:31.651Z,16.30
2019-02-25T14:48:02.505Z,16.20
2019-02-25T14:50:30.829Z,16.00
2019-02-25T14:53:00.597Z,16.20
2019-02-25T14:55:30.308Z,16.40
2019-02-25T14:58:02.099Z,16.20
2019-02-25T15:00:32.785Z,16.40
2019-02-25T15:03:00.329Z,16.40
2019-02-25T15:05:29.319Z,16.40
2019-02-25T15:07:58.493Z,16.40
2019-02-25T15:10:31.346Z,16.20
2019-02-25T15:12:59.290Z,16.40
2019-02-25T15:15:28.552Z,16.40
2019-02-25T15:17:57.968Z,16.30
2019-02-25T15:20:28.918Z,16.20
2019-02-25T15:22:57.490Z,16.40
2019-02-25T15:25:29.178Z,16.60
2019-02-25T15:27:57.066Z,16.60
2019-02-25T15:30:28.308Z,16.60
2019-02-25T15:32:58.748Z,16.40
2019-02-25T15:35:31.427Z,16.40
2019-02-25T15:37:58.327Z,16.40
2019-02-25T15:40:47.272Z,16.40
2019-02-25T15:43:18.733Z,16.40
2019-02-25T15:46:19.161Z,16.50
2019-02-25T15:48:47.938Z,16.40
2019-02-25T15:51:37.106Z,16.50
2019-02-25T15:54:28.940Z,16.50
2019-02-25T16:00:25.438Z,16.50
2019-02-25T16:03:15.944Z,16.20
2019-02-25T16:06:05.689Z,16.30
2019-02-25T16:08:54.448Z,16.40
2019-02-25T16:11:45.185Z,16.20
2019-02-25T16:14:13.984Z,16.10
2019-02-25T16:16:42.896Z,16.20
2019-02-25T16:22:26.143Z,16.10
2019-02-25T16:25:14.789Z,16.00
2019-02-25T16:28:02.884Z,15.80
2019-02-25T16:30:51.408Z,15.80
2019-02-25T16:33:41.032Z,15.60
2019-02-25T16:36:31.126Z,15.50
2019-02-25T16:39:18.984Z,15.30
2019-02-25T16:42:07.174Z,15.20
2019-02-25T16:44:55.711Z,15.20
2019-02-25T16:47:45.040Z,15.10
2019-02-25T16:50:34.797Z,14.90
2019-02-25T16:56:30.199Z,14.70
2019-02-25T16:59:20.176Z,14.50
2019-02-25T17:02:11.856Z,14.40
2019-02-25T17:04:57.821Z,14.40
2019-02-25T17:07:46.516Z,14.30
2019-02-25T17:10:35.679Z,14.20
2019-02-25T17:13:23.704Z,14.10
2019-02-25T17:16:17.678Z,14.00
2019-02-25T17:18:48.883Z,13.90
2019-02-25T17:21:30.015Z,13.80
2019-02-25T17:24:10.459Z,13.70
2019-02-25T17:26:51.179Z,13.60
2019-02-25T17:29:33.567Z,13.50
2019-02-25T17:32:16.562Z,13.50
2019-02-25T17:34:58.202Z,13.40
2019-02-25T17:37:40.402Z,13.50
2019-02-25T17:40:21.683Z,13.40
2019-02-25T17:45:45.082Z,13.10
2019-02-25T17:51:07.803Z,13.00
2019-02-25T17:53:50.477Z,12.90
2019-02-25T17:56:31.905Z,12.80
2019-02-25T17:59:13.353Z,12.70
2019-02-25T18:01:54.300Z,12.60
2019-02-25T18:04:34.866Z,12.60
2019-02-25T18:07:15.727Z,12.50
2019-02-25T18:09:56.231Z,12.40
2019-02-25T18:12:39.080Z,12.40
2019-02-25T18:15:21.980Z,12.30
2019-02-25T18:18:02.610Z,12.20
2019-02-25T18:20:43.504Z,12.20
2019-02-25T18:23:24.399Z,12.10
2019-02-25T18:26:05.180Z,12.10
2019-02-25T18:28:46.682Z,12.00
2019-02-25T18:31:28.739Z,12.00
2019-02-25T18:34:11.197Z,11.90
2019-02-25T18:36:40.339Z,11.90
2019-02-25T18:39:29.970Z,11.80
2019-02-25T18:42:21.010Z,11.70
2019-02-25T18:45:11.077Z,11.70
2019-02-25T18:47:59.448Z,11.60
2019-02-25T18:53:41.439Z,11.40
2019-02-25T18:56:29.460Z,11.40
2019-02-25T18:59:19.764Z,11.40
2019-02-25T19:02:07.985Z,11.30
2019-02-25T19:04:58.231Z,11.30
2019-02-25T19:07:47.201Z,11.20
2019-02-25T19:10:20.354Z,11.20
2019-02-25T19:12:49.653Z,11.20
2019-02-25T19:15:19.474Z,11.10
2019-02-25T19:17:50.048Z,11.10
2019-02-25T19:20:21.331Z,11.00
2019-02-25T19:22:50.404Z,11.00
2019-02-25T19:25:20.889Z,11.00
2019-02-25T19:27:50.618Z,10.90
2019-02-25T19:30:22.259Z,10.90
2019-02-25T19:32:51.117Z,10.80
2019-02-25T19:35:21.909Z,10.80
2019-02-25T19:37:50.549Z,10.80
2019-02-25T19:40:21.843Z,10.70
2019-02-25T19:42:51.571Z,10.70
2019-02-25T19:45:20.698Z,10.60
2019-02-25T19:47:49.481Z,10.60
2019-02-25T19:50:18.869Z,10.60
2019-02-25T19:52:47.823Z,10.50
2019-02-25T19:55:18.357Z,10.40
2019-02-25T19:57:47.183Z,10.40
2019-02-25T20:00:22.055Z,10.40
2019-02-25T20:02:50.459Z,10.40
2019-02-25T20:05:21.572Z,10.30
2019-02-25T20:07:49.826Z,10.20
2019-02-25T20:10:19.130Z,10.20
2019-02-25T20:12:50.190Z,10.10
2019-02-25T20:15:21.253Z,10.00
2019-02-25T20:17:50.679Z,9.90
2019-02-25T20:20:20.490Z,9.80
2019-02-25T20:22:49.206Z,9.70
2019-02-25T20:25:19.364Z,9.70
2019-02-25T20:27:48.929Z,9.60
2019-02-25T20:30:19.191Z,9.60
2019-02-25T20:32:48.113Z,9.60
2019-02-25T20:35:17.749Z,9.60
2019-02-25T20:37:51.008Z,9.60
2019-02-25T20:40:21.213Z,9.50
2019-02-25T20:42:51.231Z,9.50
2019-02-25T20:45:22.959Z,9.40
2019-02-25T20:47:52.332Z,9.40
2019-02-25T20:50:21.958Z,9.40
2019-02-25T20:52:50.801Z,9.40
2019-02-25T20:55:19.907Z,9.40
2019-02-25T20:57:48.823Z,9.40
2019-02-25T21:00:19.993Z,9.40
2019-02-25T21:02:49.107Z,9.40
2019-02-25T21:05:21.839Z,9.40
2019-02-25T21:07:50.482Z,9.40
2019-02-25T21:10:19.127Z,9.30
2019-02-25T21:12:47.875Z,9.30
2019-02-25T21:15:17.031Z,9.20
2019-02-25T21:17:46.120Z,9.20
2019-02-25T21:20:15.018Z,9.10
2019-02-25T21:22:44.559Z,9.00
2019-02-25T21:25:13.783Z,9.00
2019-02-25T21:27:42.518Z,8.90
2019-02-25T21:30:15.462Z,8.90
2019-02-25T21:32:47.195Z,8.90
2019-02-25T21:35:14.824Z,8.80
2019-02-25T21:37:46.088Z,8.70
2019-02-25T21:40:15.597Z,8.80
2019-02-25T21:42:46.364Z,8.70
2019-02-25T21:45:18.010Z,8.60
2019-02-25T21:47:47.638Z,8.60
2019-02-25T21:50:16.293Z,8.50
2019-02-25T21:52:45.724Z,8.50
2019-02-25T21:55:16.053Z,8.40
2019-02-25T21:57:44.946Z,8.50
2019-02-25T22:00:15.544Z,8.50
2019-02-25T22:02:45.848Z,8.50
2019-02-25T22:05:16.546Z,8.40
2019-02-25T22:07:45.322Z,8.40
2019-02-25T22:10:15.830Z,8.30
2019-02-25T22:12:44.626Z,8.30
2019-02-25T22:15:15.306Z,8.30
2019-02-25T22:17:45.633Z,8.30
2019-02-25T22:20:16.567Z,8.30
2019-02-25T22:22:44.884Z,8.20
2019-02-25T22:25:15.800Z,8.20
2019-02-25T22:27:45.610Z,8.10
2019-02-25T22:30:15.634Z,8.10
2019-02-25T22:32:44.410Z,8.10
2019-02-25T22:35:15.111Z,8.10
2019-02-25T22:37:46.866Z,8.00
2019-02-25T22:40:15.138Z,8.00
2019-02-25T22:42:47.126Z,8.00
2019-02-25T22:45:16.468Z,7.90
2019-02-25T22:47:46.118Z,7.80
2019-02-25T22:50:15.371Z,7.80
2019-02-25T22:52:44.208Z,7.80
2019-02-25T22:55:15.315Z,7.80
2019-02-25T22:57:45.745Z,7.80
2019-02-25T23:00:41.630Z,7.80
2019-02-25T23:03:11.274Z,7.80
2019-02-25T23:05:42.991Z,7.70
2019-02-25T23:08:12.791Z,7.70
2019-02-25T23:10:42.548Z,7.70
2019-02-25T23:13:12.006Z,7.60
2019-02-25T23:15:43.783Z,7.60
2019-02-25T23:18:13.897Z,7.60
2019-02-25T23:20:41.613Z,7.60
2019-02-25T23:23:10.372Z,7.60
2019-02-25T23:25:39.309Z,7.60
2019-02-25T23:28:08.227Z,7.60
2019-02-25T23:30:39.647Z,7.60
2019-02-25T23:33:09.765Z,7.60
2019-02-25T23:35:40.790Z,7.70
2019-02-25T23:38:09.086Z,7.60
2019-02-25T23:40:40.066Z,7.50
2019-02-25T23:43:10.155Z,7.50
2019-02-25T23:45:40.099Z,7.40
2019-02-25T23:48:11.567Z,7.40
2019-02-25T23:50:40.157Z,7.40
2019-02-25T23:53:08.887Z,7.50
2019-02-25T23:55:37.621Z,7.50
2019-02-25T23:58:10.220Z,7.50
